GLD1134 SWJN-SBSO
Flight info
| Callsign | GLD1134 |
|---|---|
| Flight time | 1h 7m |
| Altitude | 9500 |
| Route | 1147S05740W 1219S05608W |
| Aircraft | BE58/L-S/C |
Departure
| Time | 2026-04-26 22:07 |
|---|---|
| Airport | Juína Airport (SWJN) |
Arrival
| Time | 2026-04-26 23:14 |
|---|---|
| Airport | Adolino Bedin Regional Airport (SBSO) |
| Time | Latitude | Longitude | Altitude | Speed | Heading |
|---|---|---|---|---|---|
| 2026-04-26 21:59 | -11.41826 | -58.70878 | 1068 ft | 0 kts | 349° |
| 2026-04-26 22:00 | -11.41827 | -58.70878 | 1062 ft | 0 kts | 349° |
| 2026-04-26 22:01 | -11.41802 | -58.70885 | 1068 ft | 9 kts | 321° |
| 2026-04-26 22:01 | -11.41806 | -58.70943 | 1068 ft | 6 kts | 257° |
| 2026-04-26 22:02 | -11.41807 | -58.70945 | 1068 ft | 0 kts | 257° |
| 2026-04-26 22:04 | -11.41809 | -58.70955 | 1069 ft | 7 kts | 257° |
| 2026-04-26 22:04 | -11.41801 | -58.71027 | 1070 ft | 18 kts | 328° |
| 2026-04-26 22:04 | -11.41641 | -58.71066 | 1070 ft | 29 kts | 347° |
| 2026-04-26 22:04 | -11.41458 | -58.71108 | 1068 ft | 20 kts | 347° |
| 2026-04-26 22:05 | -11.41350 | -58.71142 | 1069 ft | 10 kts | 306° |
| 2026-04-26 22:05 | -11.41316 | -58.71180 | 1069 ft | 3 kts | 7° |
| 2026-04-26 22:05 | -11.41322 | -58.71140 | 1069 ft | 8 kts | 167° |
| 2026-04-26 22:05 | -11.41330 | -58.71138 | 1069 ft | 0 kts | 168° |
| 2026-04-26 22:06 | -11.41331 | -58.71138 | 1069 ft | 2 kts | 168° |
| 2026-04-26 22:06 | -11.41562 | -58.71084 | 1069 ft | 81 kts | 167° |
| 2026-04-26 22:06 | -11.42341 | -58.70903 | 1163 ft | 137 kts | 167° |
| 2026-04-26 22:06 | -11.43247 | -58.70481 | 1505 ft | 149 kts | 139° |
| 2026-04-26 22:07 | -11.43828 | -58.69535 | 1632 ft | 165 kts | 109° |
| 2026-04-26 22:07 | -11.44216 | -58.68407 | 1763 ft | 175 kts | 108° |
| 2026-04-26 22:07 | -11.44487 | -58.67605 | 1861 ft | 180 kts | 107° |
| 2026-04-26 22:07 | -11.44905 | -58.66388 | 2000 ft | 183 kts | 108° |
| 2026-04-26 22:08 | -11.45335 | -58.65142 | 2144 ft | 185 kts | 108° |
| 2026-04-26 22:08 | -11.45767 | -58.63900 | 2288 ft | 185 kts | 108° |
| 2026-04-26 22:08 | -11.46202 | -58.62658 | 2435 ft | 186 kts | 107° |
| 2026-04-26 22:08 | -11.46634 | -58.61416 | 2583 ft | 186 kts | 108° |
| 2026-04-26 22:09 | -11.47068 | -58.60171 | 2717 ft | 185 kts | 107° |
| 2026-04-26 22:09 | -11.47497 | -58.58936 | 2860 ft | 184 kts | 108° |
| 2026-04-26 22:09 | -11.47924 | -58.57712 | 3003 ft | 182 kts | 108° |
| 2026-04-26 22:09 | -11.48350 | -58.56487 | 3151 ft | 181 kts | 108° |
| 2026-04-26 22:10 | -11.48770 | -58.55276 | 3295 ft | 181 kts | 108° |
| 2026-04-26 22:10 | -11.49191 | -58.54067 | 3436 ft | 180 kts | 108° |
| 2026-04-26 22:10 | -11.49609 | -58.52869 | 3576 ft | 178 kts | 108° |
| 2026-04-26 22:10 | -11.50023 | -58.51675 | 3719 ft | 178 kts | 107° |
| 2026-04-26 22:11 | -11.50436 | -58.50483 | 3865 ft | 178 kts | 108° |
| 2026-04-26 22:11 | -11.50856 | -58.49279 | 4011 ft | 178 kts | 107° |
| 2026-04-26 22:11 | -11.51268 | -58.48092 | 4156 ft | 177 kts | 107° |
| 2026-04-26 22:11 | -11.51680 | -58.46908 | 4300 ft | 177 kts | 107° |
| 2026-04-26 22:12 | -11.52089 | -58.45727 | 4445 ft | 176 kts | 108° |
| 2026-04-26 22:12 | -11.52498 | -58.44555 | 4593 ft | 175 kts | 107° |
| 2026-04-26 22:12 | -11.52904 | -58.43384 | 4736 ft | 175 kts | 107° |
| 2026-04-26 22:12 | -11.53311 | -58.42213 | 4875 ft | 175 kts | 107° |
| 2026-04-26 22:13 | -11.53715 | -58.41051 | 5020 ft | 173 kts | 107° |
| 2026-04-26 22:13 | -11.54116 | -58.39896 | 5164 ft | 172 kts | 107° |
| 2026-04-26 22:13 | -11.54514 | -58.38746 | 5304 ft | 171 kts | 107° |
| 2026-04-26 22:13 | -11.54909 | -58.37610 | 5445 ft | 169 kts | 107° |
| 2026-04-26 22:14 | -11.55298 | -58.36487 | 5583 ft | 167 kts | 107° |
| 2026-04-26 22:14 | -11.55686 | -58.35377 | 5725 ft | 167 kts | 106° |
| 2026-04-26 22:14 | -11.56072 | -58.34255 | 5871 ft | 168 kts | 106° |
| 2026-04-26 22:14 | -11.56464 | -58.33126 | 6022 ft | 169 kts | 107° |
| 2026-04-26 22:15 | -11.56857 | -58.31992 | 6170 ft | 170 kts | 107° |
| 2026-04-26 22:15 | -11.57252 | -58.30855 | 6317 ft | 169 kts | 106° |
| 2026-04-26 22:15 | -11.57644 | -58.29724 | 6454 ft | 169 kts | 107° |
| 2026-04-26 22:15 | -11.58032 | -58.28606 | 6589 ft | 169 kts | 107° |
| 2026-04-26 22:16 | -11.58422 | -58.27480 | 6728 ft | 168 kts | 107° |
| 2026-04-26 22:16 | -11.58810 | -58.26360 | 6865 ft | 168 kts | 107° |
| 2026-04-26 22:16 | -11.59206 | -58.25217 | 7007 ft | 168 kts | 107° |
| 2026-04-26 22:16 | -11.59595 | -58.24096 | 7146 ft | 168 kts | 106° |
| 2026-04-26 22:17 | -11.59979 | -58.22989 | 7281 ft | 167 kts | 106° |
| 2026-04-26 22:17 | -11.60372 | -58.21853 | 7424 ft | 167 kts | 107° |
| 2026-04-26 22:17 | -11.60759 | -58.20737 | 7565 ft | 167 kts | 107° |
| 2026-04-26 22:17 | -11.61146 | -58.19620 | 7708 ft | 167 kts | 107° |
| 2026-04-26 22:18 | -11.61531 | -58.18507 | 7850 ft | 166 kts | 107° |
| 2026-04-26 22:18 | -11.61915 | -58.17398 | 8003 ft | 165 kts | 107° |
| 2026-04-26 22:18 | -11.62298 | -58.16294 | 8136 ft | 165 kts | 107° |
| 2026-04-26 22:18 | -11.62674 | -58.15206 | 8278 ft | 165 kts | 107° |
| 2026-04-26 22:19 | -11.63059 | -58.14093 | 8425 ft | 164 kts | 106° |
| 2026-04-26 22:19 | -11.63434 | -58.13010 | 8567 ft | 164 kts | 107° |
| 2026-04-26 22:19 | -11.63811 | -58.11920 | 8714 ft | 163 kts | 107° |
| 2026-04-26 22:19 | -11.64189 | -58.10827 | 8860 ft | 163 kts | 107° |
| 2026-04-26 22:20 | -11.64566 | -58.09738 | 9009 ft | 163 kts | 107° |
| 2026-04-26 22:20 | -11.64816 | -58.09015 | 9109 ft | 163 kts | 107° |
| 2026-04-26 22:20 | -11.65321 | -58.07554 | 9308 ft | 163 kts | 107° |
| 2026-04-26 22:20 | -11.65698 | -58.06464 | 9455 ft | 163 kts | 107° |
| 2026-04-26 22:21 | -11.66079 | -58.05362 | 9500 ft | 168 kts | 107° |
| 2026-04-26 22:21 | -11.66474 | -58.04219 | 9506 ft | 173 kts | 107° |
| 2026-04-26 22:21 | -11.66879 | -58.03048 | 9512 ft | 176 kts | 107° |
| 2026-04-26 22:21 | -11.67289 | -58.01866 | 9513 ft | 177 kts | 107° |
| 2026-04-26 22:22 | -11.67700 | -58.00677 | 9512 ft | 178 kts | 107° |
| 2026-04-26 22:22 | -11.68109 | -57.99491 | 9505 ft | 178 kts | 107° |
| 2026-04-26 22:22 | -11.68523 | -57.98292 | 9506 ft | 178 kts | 107° |
| 2026-04-26 22:22 | -11.68936 | -57.97096 | 9511 ft | 179 kts | 107° |
| 2026-04-26 22:23 | -11.69350 | -57.95904 | 9510 ft | 178 kts | 107° |
| 2026-04-26 22:23 | -11.69754 | -57.94727 | 9514 ft | 180 kts | 107° |
| 2026-04-26 22:23 | -11.70177 | -57.93500 | 9508 ft | 181 kts | 107° |
| 2026-04-26 22:23 | -11.70591 | -57.92303 | 9514 ft | 182 kts | 107° |
| 2026-04-26 22:24 | -11.71013 | -57.91081 | 9508 ft | 183 kts | 107° |
| 2026-04-26 22:24 | -11.71435 | -57.89859 | 9511 ft | 183 kts | 107° |
| 2026-04-26 22:24 | -11.71858 | -57.88631 | 9516 ft | 183 kts | 107° |
| 2026-04-26 22:24 | -11.72288 | -57.87386 | 9514 ft | 183 kts | 107° |
| 2026-04-26 22:25 | -11.72705 | -57.86177 | 9516 ft | 183 kts | 107° |
| 2026-04-26 22:25 | -11.73133 | -57.84936 | 9515 ft | 183 kts | 107° |
| 2026-04-26 22:25 | -11.73557 | -57.83706 | 9517 ft | 184 kts | 107° |
| 2026-04-26 22:25 | -11.73981 | -57.82477 | 9512 ft | 184 kts | 107° |
| 2026-04-26 22:26 | -11.74401 | -57.81260 | 9510 ft | 184 kts | 107° |
| 2026-04-26 22:26 | -11.74825 | -57.80031 | 9513 ft | 184 kts | 107° |
| 2026-04-26 22:26 | -11.75249 | -57.78799 | 9509 ft | 184 kts | 107° |
| 2026-04-26 22:26 | -11.75673 | -57.77567 | 9511 ft | 184 kts | 107° |
| 2026-04-26 22:27 | -11.76098 | -57.76335 | 9509 ft | 184 kts | 107° |
| 2026-04-26 22:27 | -11.76522 | -57.75103 | 9516 ft | 184 kts | 107° |
| 2026-04-26 22:27 | -11.76948 | -57.73866 | 9512 ft | 184 kts | 107° |
| 2026-04-26 22:27 | -11.77372 | -57.72636 | 9516 ft | 184 kts | 107° |
| 2026-04-26 22:28 | -11.77796 | -57.71403 | 9512 ft | 184 kts | 107° |
| 2026-04-26 22:28 | -11.78220 | -57.70171 | 9516 ft | 184 kts | 107° |
| 2026-04-26 22:28 | -11.78645 | -57.68937 | 9513 ft | 185 kts | 107° |
| 2026-04-26 22:28 | -11.79071 | -57.67700 | 9517 ft | 185 kts | 107° |
| 2026-04-26 22:29 | -11.79497 | -57.66462 | 9514 ft | 185 kts | 107° |
| 2026-04-26 22:29 | -11.79922 | -57.65228 | 9520 ft | 185 kts | 107° |
| 2026-04-26 22:29 | -11.80347 | -57.63991 | 9515 ft | 185 kts | 108° |
| 2026-04-26 22:29 | -11.80773 | -57.62751 | 9518 ft | 185 kts | 108° |
| 2026-04-26 22:30 | -11.81143 | -57.61677 | 9518 ft | 185 kts | 107° |
| 2026-04-26 22:30 | -11.81569 | -57.60435 | 9514 ft | 186 kts | 108° |
| 2026-04-26 22:30 | -11.81998 | -57.59190 | 9513 ft | 186 kts | 107° |
| 2026-04-26 22:30 | -11.82425 | -57.57946 | 9517 ft | 186 kts | 107° |
| 2026-04-26 22:31 | -11.82853 | -57.56701 | 9517 ft | 186 kts | 108° |
| 2026-04-26 22:31 | -11.83280 | -57.55459 | 9515 ft | 185 kts | 108° |
| 2026-04-26 22:31 | -11.83707 | -57.54215 | 9519 ft | 186 kts | 107° |
| 2026-04-26 22:31 | -11.84134 | -57.52971 | 9514 ft | 186 kts | 108° |
| 2026-04-26 22:32 | -11.84562 | -57.51728 | 9513 ft | 185 kts | 108° |
| 2026-04-26 22:32 | -11.84988 | -57.50486 | 9519 ft | 186 kts | 108° |
| 2026-04-26 22:32 | -11.85415 | -57.49242 | 9515 ft | 186 kts | 108° |
| 2026-04-26 22:32 | -11.85842 | -57.47999 | 9511 ft | 186 kts | 108° |
| 2026-04-26 22:33 | -11.86269 | -57.46754 | 9518 ft | 186 kts | 108° |
| 2026-04-26 22:33 | -11.87122 | -57.44269 | 9518 ft | 185 kts | 108° |
| 2026-04-26 22:33 | -11.87548 | -57.43024 | 9517 ft | 185 kts | 108° |
| 2026-04-26 22:34 | -11.87974 | -57.41783 | 9513 ft | 185 kts | 108° |
| 2026-04-26 22:34 | -11.88400 | -57.40544 | 9518 ft | 185 kts | 108° |
| 2026-04-26 22:34 | -11.88825 | -57.39300 | 9514 ft | 185 kts | 107° |
| 2026-04-26 22:34 | -11.89251 | -57.38058 | 9516 ft | 185 kts | 107° |
| 2026-04-26 22:35 | -11.89677 | -57.36816 | 9513 ft | 185 kts | 108° |
| 2026-04-26 22:35 | -11.90102 | -57.35577 | 9516 ft | 185 kts | 108° |
| 2026-04-26 22:35 | -11.90527 | -57.34337 | 9514 ft | 185 kts | 108° |
| 2026-04-26 22:35 | -11.90947 | -57.33110 | 9516 ft | 185 kts | 108° |
| 2026-04-26 22:36 | -11.91375 | -57.31862 | 9512 ft | 185 kts | 108° |
| 2026-04-26 22:36 | -11.91799 | -57.30624 | 9516 ft | 185 kts | 108° |
| 2026-04-26 22:36 | -11.92223 | -57.29386 | 9512 ft | 185 kts | 108° |
| 2026-04-26 22:36 | -11.92647 | -57.28147 | 9516 ft | 185 kts | 108° |
| 2026-04-26 22:37 | -11.93071 | -57.26908 | 9511 ft | 185 kts | 108° |
| 2026-04-26 22:37 | -11.93495 | -57.25670 | 9514 ft | 185 kts | 108° |
| 2026-04-26 22:37 | -11.93915 | -57.24442 | 9514 ft | 185 kts | 108° |
| 2026-04-26 22:37 | -11.94342 | -57.23194 | 9509 ft | 185 kts | 108° |
| 2026-04-26 22:38 | -11.94766 | -57.21955 | 9513 ft | 185 kts | 108° |
| 2026-04-26 22:38 | -11.95190 | -57.20716 | 9512 ft | 185 kts | 107° |
| 2026-04-26 22:38 | -11.95615 | -57.19474 | 9513 ft | 185 kts | 108° |
| 2026-04-26 22:38 | -11.96038 | -57.18237 | 9511 ft | 185 kts | 108° |
| 2026-04-26 22:39 | -11.96461 | -57.16999 | 9516 ft | 185 kts | 107° |
| 2026-04-26 22:39 | -11.96885 | -57.15758 | 9505 ft | 185 kts | 107° |
| 2026-04-26 22:39 | -11.97166 | -57.14938 | 9510 ft | 185 kts | 108° |
| 2026-04-26 22:39 | -11.97590 | -57.13698 | 9513 ft | 185 kts | 108° |
| 2026-04-26 22:40 | -11.98012 | -57.12460 | 9510 ft | 185 kts | 108° |
| 2026-04-26 22:40 | -11.98436 | -57.11221 | 9513 ft | 185 kts | 108° |
| 2026-04-26 22:40 | -11.98860 | -57.09980 | 9510 ft | 185 kts | 108° |
| 2026-04-26 22:40 | -11.99283 | -57.08742 | 9512 ft | 185 kts | 108° |
| 2026-04-26 22:41 | -11.99705 | -57.07505 | 9514 ft | 184 kts | 108° |
| 2026-04-26 22:41 | -12.00127 | -57.06269 | 9509 ft | 184 kts | 108° |
| 2026-04-26 22:41 | -12.00549 | -57.05033 | 9504 ft | 184 kts | 108° |
| 2026-04-26 22:41 | -12.00971 | -57.03795 | 9506 ft | 185 kts | 108° |
| 2026-04-26 22:42 | -12.01394 | -57.02557 | 9506 ft | 185 kts | 108° |
| 2026-04-26 22:42 | -12.01816 | -57.01320 | 9506 ft | 185 kts | 108° |
| 2026-04-26 22:42 | -12.02239 | -57.00080 | 9505 ft | 185 kts | 108° |
| 2026-04-26 22:42 | -12.02662 | -56.98841 | 9502 ft | 185 kts | 108° |
| 2026-04-26 22:43 | -12.03085 | -56.97600 | 9508 ft | 185 kts | 108° |
| 2026-04-26 22:43 | -12.03507 | -56.96361 | 9504 ft | 185 kts | 108° |
| 2026-04-26 22:43 | -12.03929 | -56.95124 | 9505 ft | 185 kts | 108° |
| 2026-04-26 22:43 | -12.04351 | -56.93884 | 9509 ft | 185 kts | 108° |
| 2026-04-26 22:44 | -12.04774 | -56.92647 | 9506 ft | 185 kts | 108° |
| 2026-04-26 22:44 | -12.05194 | -56.91411 | 9502 ft | 184 kts | 108° |
| 2026-04-26 22:44 | -12.05618 | -56.90170 | 9505 ft | 185 kts | 108° |
| 2026-04-26 22:44 | -12.06040 | -56.88930 | 9506 ft | 185 kts | 108° |
| 2026-04-26 22:45 | -12.06461 | -56.87693 | 9503 ft | 184 kts | 108° |
| 2026-04-26 22:45 | -12.06883 | -56.86454 | 9506 ft | 185 kts | 108° |
| 2026-04-26 22:45 | -12.07305 | -56.85215 | 9506 ft | 185 kts | 108° |
| 2026-04-26 22:45 | -12.07727 | -56.83976 | 9503 ft | 185 kts | 108° |
| 2026-04-26 22:46 | -12.08149 | -56.82737 | 9505 ft | 185 kts | 108° |
| 2026-04-26 22:46 | -12.08565 | -56.81514 | 9506 ft | 185 kts | 108° |
| 2026-04-26 22:46 | -12.08987 | -56.80274 | 9507 ft | 185 kts | 108° |
| 2026-04-26 22:46 | -12.09409 | -56.79034 | 9509 ft | 184 kts | 108° |
| 2026-04-26 22:47 | -12.09830 | -56.77795 | 9506 ft | 185 kts | 108° |
| 2026-04-26 22:47 | -12.10252 | -56.76554 | 9509 ft | 185 kts | 108° |
| 2026-04-26 22:47 | -12.10674 | -56.75314 | 9510 ft | 185 kts | 108° |
| 2026-04-26 22:47 | -12.11098 | -56.74069 | 9506 ft | 185 kts | 108° |
| 2026-04-26 22:48 | -12.11519 | -56.72830 | 9508 ft | 185 kts | 108° |
| 2026-04-26 22:48 | -12.11920 | -56.71649 | 9508 ft | 185 kts | 108° |
| 2026-04-26 22:48 | -12.12342 | -56.70409 | 9510 ft | 185 kts | 108° |
| 2026-04-26 22:48 | -12.12765 | -56.69164 | 9505 ft | 185 kts | 108° |
| 2026-04-26 22:49 | -12.13192 | -56.67907 | 9512 ft | 185 kts | 108° |
| 2026-04-26 22:49 | -12.13614 | -56.66664 | 9512 ft | 185 kts | 108° |
| 2026-04-26 22:49 | -12.14036 | -56.65421 | 9508 ft | 185 kts | 108° |
| 2026-04-26 22:49 | -12.14457 | -56.64182 | 9510 ft | 185 kts | 108° |
| 2026-04-26 22:50 | -12.14878 | -56.62940 | 9510 ft | 185 kts | 108° |
| 2026-04-26 22:50 | -12.15300 | -56.61697 | 9507 ft | 185 kts | 108° |
| 2026-04-26 22:50 | -12.15721 | -56.60457 | 9507 ft | 185 kts | 108° |
| 2026-04-26 22:50 | -12.16142 | -56.59216 | 9508 ft | 185 kts | 108° |
| 2026-04-26 22:51 | -12.16558 | -56.57990 | 9510 ft | 185 kts | 108° |
| 2026-04-26 22:51 | -12.16980 | -56.56747 | 9510 ft | 185 kts | 108° |
| 2026-04-26 22:51 | -12.17401 | -56.55506 | 9505 ft | 185 kts | 108° |
| 2026-04-26 22:51 | -12.17822 | -56.54265 | 9508 ft | 185 kts | 108° |
| 2026-04-26 22:52 | -12.18243 | -56.53022 | 9510 ft | 185 kts | 108° |
| 2026-04-26 22:52 | -12.18665 | -56.51779 | 9513 ft | 185 kts | 108° |
| 2026-04-26 22:52 | -12.19085 | -56.50539 | 9512 ft | 185 kts | 108° |
| 2026-04-26 22:52 | -12.19506 | -56.49296 | 9508 ft | 184 kts | 108° |
| 2026-04-26 22:53 | -12.19927 | -56.48056 | 9510 ft | 184 kts | 108° |
| 2026-04-26 22:53 | -12.20346 | -56.46817 | 9511 ft | 184 kts | 108° |
| 2026-04-26 22:53 | -12.20765 | -56.45580 | 9512 ft | 184 kts | 108° |
| 2026-04-26 22:53 | -12.21185 | -56.44342 | 9512 ft | 184 kts | 108° |
| 2026-04-26 22:54 | -12.21604 | -56.43105 | 9513 ft | 184 kts | 108° |
| 2026-04-26 22:54 | -12.22023 | -56.41866 | 9504 ft | 184 kts | 108° |
| 2026-04-26 22:54 | -12.22442 | -56.40628 | 9506 ft | 185 kts | 108° |
| 2026-04-26 22:54 | -12.22866 | -56.39373 | 9412 ft | 190 kts | 108° |
| 2026-04-26 22:55 | -12.23298 | -56.38100 | 9296 ft | 194 kts | 108° |
| 2026-04-26 22:55 | -12.23739 | -56.36797 | 9177 ft | 194 kts | 108° |
| 2026-04-26 22:55 | -12.24180 | -56.35493 | 9052 ft | 194 kts | 108° |
| 2026-04-26 22:55 | -12.24623 | -56.34185 | 8929 ft | 194 kts | 108° |
| 2026-04-26 22:56 | -12.25063 | -56.32882 | 8803 ft | 194 kts | 108° |
| 2026-04-26 22:56 | -12.25504 | -56.31578 | 8681 ft | 194 kts | 108° |
| 2026-04-26 22:56 | -12.25945 | -56.30274 | 8551 ft | 194 kts | 108° |
| 2026-04-26 22:56 | -12.26388 | -56.28963 | 8423 ft | 195 kts | 108° |
| 2026-04-26 22:57 | -12.26833 | -56.27645 | 8299 ft | 196 kts | 108° |
| 2026-04-26 22:57 | -12.27278 | -56.26330 | 8178 ft | 196 kts | 108° |
| 2026-04-26 22:57 | -12.27723 | -56.25013 | 8058 ft | 196 kts | 108° |
| 2026-04-26 22:57 | -12.28168 | -56.23696 | 7939 ft | 196 kts | 107° |
| 2026-04-26 22:58 | -12.28606 | -56.22397 | 7824 ft | 196 kts | 107° |
| 2026-04-26 22:58 | -12.29052 | -56.21078 | 7702 ft | 196 kts | 107° |
| 2026-04-26 22:58 | -12.29496 | -56.19761 | 7590 ft | 196 kts | 107° |
| 2026-04-26 22:58 | -12.29940 | -56.18445 | 7468 ft | 196 kts | 107° |
| 2026-04-26 22:59 | -12.30386 | -56.17125 | 7350 ft | 196 kts | 107° |
| 2026-04-26 22:59 | -12.30829 | -56.15811 | 7233 ft | 196 kts | 107° |
| 2026-04-26 22:59 | -12.31274 | -56.14494 | 7116 ft | 196 kts | 107° |
| 2026-04-26 22:59 | -12.31718 | -56.13177 | 7003 ft | 196 kts | 107° |
| 2026-04-26 23:00 | -12.32162 | -56.11861 | 6877 ft | 196 kts | 107° |
| 2026-04-26 23:00 | -12.32606 | -56.10545 | 6768 ft | 196 kts | 107° |
| 2026-04-26 23:00 | -12.33044 | -56.09244 | 6657 ft | 191 kts | 107° |
| 2026-04-26 23:00 | -12.33474 | -56.07968 | 6532 ft | 188 kts | 107° |
| 2026-04-26 23:01 | -12.33897 | -56.06712 | 6418 ft | 186 kts | 107° |
| 2026-04-26 23:01 | -12.34317 | -56.05466 | 6299 ft | 185 kts | 107° |
| 2026-04-26 23:01 | -12.34735 | -56.04223 | 6175 ft | 184 kts | 107° |
| 2026-04-26 23:01 | -12.35151 | -56.02988 | 6052 ft | 184 kts | 107° |
| 2026-04-26 23:02 | -12.35567 | -56.01753 | 5929 ft | 184 kts | 107° |
| 2026-04-26 23:02 | -12.35983 | -56.00519 | 5806 ft | 184 kts | 107° |
| 2026-04-26 23:02 | -12.36398 | -55.99285 | 5683 ft | 183 kts | 107° |
| 2026-04-26 23:02 | -12.36814 | -55.98050 | 5562 ft | 183 kts | 107° |
| 2026-04-26 23:03 | -12.37230 | -55.96814 | 5442 ft | 184 kts | 107° |
| 2026-04-26 23:03 | -12.37647 | -55.95574 | 5321 ft | 184 kts | 107° |
| 2026-04-26 23:03 | -12.38060 | -55.94347 | 5203 ft | 184 kts | 107° |
| 2026-04-26 23:03 | -12.38479 | -55.93102 | 5085 ft | 184 kts | 107° |
| 2026-04-26 23:04 | -12.38896 | -55.91860 | 4962 ft | 185 kts | 107° |
| 2026-04-26 23:04 | -12.39314 | -55.90617 | 4844 ft | 185 kts | 108° |
| 2026-04-26 23:04 | -12.39733 | -55.89372 | 4725 ft | 186 kts | 108° |
| 2026-04-26 23:04 | -12.40150 | -55.88132 | 4606 ft | 186 kts | 107° |
| 2026-04-26 23:05 | -12.40572 | -55.86877 | 4491 ft | 187 kts | 107° |
| 2026-04-26 23:05 | -12.40996 | -55.85618 | 4370 ft | 187 kts | 107° |
| 2026-04-26 23:05 | -12.41420 | -55.84356 | 4248 ft | 188 kts | 108° |
| 2026-04-26 23:05 | -12.41840 | -55.83105 | 4119 ft | 182 kts | 107° |
| 2026-04-26 23:06 | -12.42264 | -55.81898 | 3998 ft | 180 kts | 114° |
| 2026-04-26 23:06 | -12.43072 | -55.80946 | 3935 ft | 178 kts | 141° |
| 2026-04-26 23:06 | -12.44129 | -55.80310 | 3886 ft | 175 kts | 150° |
| 2026-04-26 23:06 | -12.45204 | -55.79726 | 3833 ft | 174 kts | 150° |
| 2026-04-26 23:07 | -12.46269 | -55.79147 | 3784 ft | 173 kts | 150° |
| 2026-04-26 23:07 | -12.46976 | -55.78778 | 3751 ft | 173 kts | 152° |
| 2026-04-26 23:07 | -12.48445 | -55.78112 | 3686 ft | 173 kts | 159° |
| 2026-04-26 23:07 | -12.49589 | -55.77728 | 3639 ft | 172 kts | 160° |
| 2026-04-26 23:08 | -12.50729 | -55.77349 | 3589 ft | 173 kts | 160° |
| 2026-04-26 23:08 | -12.51872 | -55.76987 | 3540 ft | 173 kts | 166° |
| 2026-04-26 23:08 | -12.53092 | -55.76869 | 3491 ft | 174 kts | 176° |
| 2026-04-26 23:08 | -12.54305 | -55.76821 | 3444 ft | 174 kts | 176° |
| 2026-04-26 23:09 | -12.55514 | -55.76772 | 3397 ft | 173 kts | 176° |
| 2026-04-26 23:09 | -12.56721 | -55.76723 | 3349 ft | 173 kts | 176° |
| 2026-04-26 23:09 | -12.57917 | -55.76625 | 3300 ft | 172 kts | 166° |
| 2026-04-26 23:09 | -12.59013 | -55.76173 | 3255 ft | 169 kts | 147° |
| 2026-04-26 23:10 | -12.59889 | -55.75393 | 3198 ft | 167 kts | 121° |
| 2026-04-26 23:10 | -12.60103 | -55.74282 | 3135 ft | 165 kts | 78° |
| 2026-04-26 23:10 | -12.59521 | -55.73280 | 3017 ft | 167 kts | 45° |
| 2026-04-26 23:10 | -12.58591 | -55.72585 | 2901 ft | 165 kts | 29° |
| 2026-04-26 23:11 | -12.57543 | -55.72144 | 2775 ft | 155 kts | 21° |
| 2026-04-26 23:11 | -12.56572 | -55.71781 | 2647 ft | 144 kts | 21° |
| 2026-04-26 23:11 | -12.55671 | -55.71391 | 2506 ft | 138 kts | 28° |
| 2026-04-26 23:11 | -12.54833 | -55.70932 | 2386 ft | 133 kts | 29° |
| 2026-04-26 23:12 | -12.54051 | -55.70502 | 2256 ft | 124 kts | 29° |
| 2026-04-26 23:12 | -12.53282 | -55.70136 | 2127 ft | 120 kts | 24° |
| 2026-04-26 23:12 | -12.52777 | -55.69917 | 2042 ft | 118 kts | 24° |
| 2026-04-26 23:12 | -12.51809 | -55.69401 | 1863 ft | 116 kts | 28° |
| 2026-04-26 23:13 | -12.51100 | -55.69014 | 1797 ft | 114 kts | 29° |
| 2026-04-26 23:13 | -12.50415 | -55.68642 | 1768 ft | 104 kts | 28° |
| 2026-04-26 23:13 | -12.50007 | -55.68408 | 1667 ft | 100 kts | 30° |
| 2026-04-26 23:13 | -12.49423 | -55.68067 | 1553 ft | 96 kts | 31° |
| 2026-04-26 23:14 | -12.48834 | -55.67740 | 1356 ft | 95 kts | 29° |
| 2026-04-26 23:14 | -12.48306 | -55.67445 | 1259 ft | 71 kts | 28° |
| 2026-04-26 23:14 | -12.48021 | -55.67287 | 1255 ft | 15 kts | 34° |
| 2026-04-26 23:14 | -12.47991 | -55.67274 | 1251 ft | 11 kts | 202° |
| 2026-04-26 23:15 | -12.48019 | -55.67346 | 1251 ft | 9 kts | 300° |
| 2026-04-26 23:15 | -12.47980 | -55.67424 | 1250 ft | 7 kts | 288° |
| 2026-04-26 23:15 | -12.48014 | -55.67460 | 1250 ft | 8 kts | 208° |
| 2026-04-26 23:15 | -12.48063 | -55.67487 | 1250 ft | 8 kts | 207° |
| 2026-04-26 23:16 | -12.48081 | -55.67497 | 1252 ft | 0 kts | 208° |